sensor_id;sensor_type;location;lat;lon;timestamp;P1;durP1;ratioP1;P2;durP2;ratioP2
29902;SDS011;30288;50.514;9.678;2023-04-01T00:01:55;13.93;;;2.90;;
29902;SDS011;30288;50.514;9.678;2023-04-01T00:04:00;8.15;;;2.25;;
29902;SDS011;30288;50.514;9.678;2023-04-01T00:06:06;11.38;;;2.30;;
29902;SDS011;30288;50.514;9.678;2023-04-01T00:08:13;15.20;;;3.47;;
29902;SDS011;30288;50.514;9.678;2023-04-01T00:10:19;11.05;;;2.33;;
29902;SDS011;30288;50.514;9.678;2023-04-01T00:12:25;11.50;;;2.50;;
29902;SDS011;30288;50.514;9.678;2023-04-01T00:14:30;9.40;;;3.28;;
29902;SDS011;30288;50.514;9.678;2023-04-01T00:16:36;19.27;;;2.60;;
29902;SDS011;30288;50.514;9.678;2023-04-01T00:18:44;13.13;;;2.35;;
29902;SDS011;30288;50.514;9.678;2023-04-01T00:20:50;16.83;;;2.55;;
29902;SDS011;30288;50.514;9.678;2023-04-01T00:22:56;10.32;;;2.28;;
29902;SDS011;30288;50.514;9.678;2023-04-01T00:25:02;8.98;;;1.83;;
29902;SDS011;30288;50.514;9.678;2023-04-01T00:27:09;12.60;;;2.88;;
29902;SDS011;30288;50.514;9.678;2023-04-01T00:29:14;15.05;;;2.75;;
29902;SDS011;30288;50.514;9.678;2023-04-01T00:31:19;9.02;;;2.35;;
29902;SDS011;30288;50.514;9.678;2023-04-01T00:33:25;12.90;;;2.47;;
29902;SDS011;30288;50.514;9.678;2023-04-01T00:35:32;12.07;;;3.33;;
29902;SDS011;30288;50.514;9.678;2023-04-01T00:37:38;11.88;;;2.58;;
29902;SDS011;30288;50.514;9.678;2023-04-01T00:39:43;12.95;;;2.30;;
29902;SDS011;30288;50.514;9.678;2023-04-01T00:41:49;13.27;;;2.20;;
29902;SDS011;30288;50.514;9.678;2023-04-01T00:46:23;16.23;;;3.92;;
29902;SDS011;30288;50.514;9.678;2023-04-01T00:48:30;13.20;;;2.72;;
29902;SDS011;30288;50.514;9.678;2023-04-01T00:50:42;10.80;;;2.70;;
29902;SDS011;30288;50.514;9.678;2023-04-01T00:52:53;16.13;;;3.20;;
29902;SDS011;30288;50.514;9.678;2023-04-01T00:54:58;16.27;;;2.88;;
29902;SDS011;30288;50.514;9.678;2023-04-01T00:57:07;22.15;;;3.45;;
29902;SDS011;30288;50.514;9.678;2023-04-01T00:59:18;13.65;;;2.67;;
29902;SDS011;30288;50.514;9.678;2023-04-01T01:01:28;11.15;;;2.35;;
29902;SDS011;30288;50.514;9.678;2023-04-01T01:03:36;13.98;;;2.83;;
29902;SDS011;30288;50.514;9.678;2023-04-01T01:08:29;14.70;;;2.67;;
29902;SDS011;30288;50.514;9.678;2023-04-01T01:10:54;16.85;;;2.70;;
29902;SDS011;30288;50.514;9.678;2023-04-01T01:13:02;15.70;;;2.42;;
29902;SDS011;30288;50.514;9.678;2023-04-01T01:15:17;12.13;;;2.60;;
29902;SDS011;30288;50.514;9.678;2023-04-01T01:17:30;14.30;;;3.03;;
29902;SDS011;30288;50.514;9.678;2023-04-01T01:19:57;11.23;;;2.60;;
29902;SDS011;30288;50.514;9.678;2023-04-01T01:25:32;17.85;;;2.95;;
29902;SDS011;30288;50.514;9.678;2023-04-01T01:27:48;9.25;;;2.22;;
29902;SDS011;30288;50.514;9.678;2023-04-01T01:30:09;11.85;;;2.72;;
29902;SDS011;30288;50.514;9.678;2023-04-01T01:32:43;15.93;;;2.50;;
29902;SDS011;30288;50.514;9.678;2023-04-01T01:35:28;8.73;;;2.28;;
29902;SDS011;30288;50.514;9.678;2023-04-01T01:37:45;10.43;;;2.90;;
29902;SDS011;30288;50.514;9.678;2023-04-01T01:39:52;19.90;;;3.45;;
29902;SDS011;30288;50.514;9.678;2023-04-01T01:42:03;9.23;;;2.50;;
29902;SDS011;30288;50.514;9.678;2023-04-01T01:44:12;17.08;;;2.75;;
29902;SDS011;30288;50.514;9.678;2023-04-01T01:46:21;12.02;;;2.92;;
29902;SDS011;30288;50.514;9.678;2023-04-01T01:48:30;19.35;;;3.15;;
29902;SDS011;30288;50.514;9.678;2023-04-01T01:50:41;12.55;;;2.88;;
29902;SDS011;30288;50.514;9.678;2023-04-01T01:52:49;19.58;;;3.20;;
29902;SDS011;30288;50.514;9.678;2023-04-01T01:54:55;16.52;;;3.38;;
29902;SDS011;30288;50.514;9.678;2023-04-01T01:57:13;10.90;;;2.35;;
29902;SDS011;30288;50.514;9.678;2023-04-01T01:59:28;11.13;;;2.40;;
29902;SDS011;30288;50.514;9.678;2023-04-01T02:01:35;24.65;;;3.60;;
29902;SDS011;30288;50.514;9.678;2023-04-01T02:03:47;12.50;;;2.30;;
29902;SDS011;30288;50.514;9.678;2023-04-01T02:05:57;16.58;;;2.78;;
29902;SDS011;30288;50.514;9.678;2023-04-01T02:08:07;19.52;;;2.53;;
29902;SDS011;30288;50.514;9.678;2023-04-01T02:10:18;13.48;;;2.80;;
29902;SDS011;30288;50.514;9.678;2023-04-01T02:12:26;14.02;;;2.53;;
29902;SDS011;30288;50.514;9.678;2023-04-01T02:14:35;10.07;;;2.30;;
29902;SDS011;30288;50.514;9.678;2023-04-01T02:16:49;11.35;;;2.40;;
29902;SDS011;30288;50.514;9.678;2023-04-01T02:18:59;9.45;;;2.08;;
29902;SDS011;30288;50.514;9.678;2023-04-01T02:21:12;8.27;;;1.77;;
29902;SDS011;30288;50.514;9.678;2023-04-01T02:23:20;21.25;;;2.60;;
29902;SDS011;30288;50.514;9.678;2023-04-01T02:25:26;9.88;;;2.28;;
29902;SDS011;30288;50.514;9.678;2023-04-01T02:27:36;15.05;;;2.53;;
29902;SDS011;30288;50.514;9.678;2023-04-01T02:29:42;9.80;;;2.28;;
29902;SDS011;30288;50.514;9.678;2023-04-01T02:31:48;16.90;;;2.58;;
29902;SDS011;30288;50.514;9.678;2023-04-01T02:33:54;20.42;;;5.10;;
29902;SDS011;30288;50.514;9.678;2023-04-01T02:36:00;14.73;;;2.90;;
29902;SDS011;30288;50.514;9.678;2023-04-01T02:38:08;10.10;;;2.50;;
29902;SDS011;30288;50.514;9.678;2023-04-01T02:40:14;12.60;;;2.90;;
29902;SDS011;30288;50.514;9.678;2023-04-01T02:42:20;10.65;;;1.90;;
29902;SDS011;30288;50.514;9.678;2023-04-01T02:44:25;15.68;;;2.45;;
29902;SDS011;30288;50.514;9.678;2023-04-01T02:46:32;13.07;;;1.98;;
29902;SDS011;30288;50.514;9.678;2023-04-01T02:48:38;11.50;;;2.20;;
29902;SDS011;30288;50.514;9.678;2023-04-01T02:50:46;8.38;;;1.83;;
29902;SDS011;30288;50.514;9.678;2023-04-01T02:52:51;14.65;;;2.83;;
29902;SDS011;30288;50.514;9.678;2023-04-01T02:55:00;10.13;;;2.38;;
29902;SDS011;30288;50.514;9.678;2023-04-01T02:57:06;14.07;;;2.38;;
29902;SDS011;30288;50.514;9.678;2023-04-01T02:59:11;9.77;;;1.98;;
29902;SDS011;30288;50.514;9.678;2023-04-01T03:01:17;7.63;;;2.20;;
29902;SDS011;30288;50.514;9.678;2023-04-01T03:03:22;9.07;;;1.77;;
29902;SDS011;30288;50.514;9.678;2023-04-01T03:05:27;12.07;;;2.40;;
29902;SDS011;30288;50.514;9.678;2023-04-01T03:07:33;8.45;;;2.13;;
29902;SDS011;30288;50.514;9.678;2023-04-01T03:09:38;11.15;;;2.42;;
29902;SDS011;30288;50.514;9.678;2023-04-01T03:11:46;14.20;;;2.50;;
29902;SDS011;30288;50.514;9.678;2023-04-01T03:13:52;9.55;;;1.80;;
29902;SDS011;30288;50.514;9.678;2023-04-01T03:15:57;14.32;;;3.92;;
29902;SDS011;30288;50.514;9.678;2023-04-01T03:18:03;8.15;;;2.28;;
29902;SDS011;30288;50.514;9.678;2023-04-01T03:20:08;10.70;;;1.92;;
29902;SDS011;30288;50.514;9.678;2023-04-01T03:22:15;16.40;;;2.20;;
29902;SDS011;30288;50.514;9.678;2023-04-01T03:24:22;11.25;;;2.47;;
29902;SDS011;30288;50.514;9.678;2023-04-01T03:26:28;13.43;;;2.20;;
29902;SDS011;30288;50.514;9.678;2023-04-01T03:28:36;9.32;;;2.45;;
29902;SDS011;30288;50.514;9.678;2023-04-01T03:30:41;11.93;;;2.78;;
29902;SDS011;30288;50.514;9.678;2023-04-01T03:32:47;15.25;;;2.30;;
29902;SDS011;30288;50.514;9.678;2023-04-01T03:34:52;8.50;;;1.90;;
29902;SDS011;30288;50.514;9.678;2023-04-01T03:39:51;12.93;;;2.53;;
29902;SDS011;30288;50.514;9.678;2023-04-01T03:41:56;13.02;;;2.40;;
29902;SDS011;30288;50.514;9.678;2023-04-01T03:44:03;12.70;;;2.03;;
29902;SDS011;30288;50.514;9.678;2023-04-01T03:46:09;12.23;;;2.03;;
29902;SDS011;30288;50.514;9.678;2023-04-01T03:48:14;10.80;;;2.20;;
29902;SDS011;30288;50.514;9.678;2023-04-01T03:50:20;10.80;;;1.88;;
29902;SDS011;30288;50.514;9.678;2023-04-01T03:52:25;10.48;;;1.92;;
29902;SDS011;30288;50.514;9.678;2023-04-01T03:54:31;13.02;;;2.05;;
29902;SDS011;30288;50.514;9.678;2023-04-01T03:56:37;15.98;;;2.13;;
29902;SDS011;30288;50.514;9.678;2023-04-01T03:58:42;12.57;;;2.15;;
29902;SDS011;30288;50.514;9.678;2023-04-01T04:00:50;9.68;;;1.90;;
29902;SDS011;30288;50.514;9.678;2023-04-01T04:02:56;9.35;;;1.65;;
29902;SDS011;30288;50.514;9.678;2023-04-01T04:05:06;8.65;;;2.13;;
29902;SDS011;30288;50.514;9.678;2023-04-01T04:07:12;11.63;;;2.20;;
29902;SDS011;30288;50.514;9.678;2023-04-01T04:09:34;8.50;;;1.83;;
29902;SDS011;30288;50.514;9.678;2023-04-01T04:11:39;11.13;;;2.15;;
29902;SDS011;30288;50.514;9.678;2023-04-01T04:13:45;9.40;;;1.73;;
29902;SDS011;30288;50.514;9.678;2023-04-01T04:15:53;12.63;;;1.90;;
29902;SDS011;30288;50.514;9.678;2023-04-01T04:17:58;10.40;;;1.88;;
29902;SDS011;30288;50.514;9.678;2023-04-01T04:20:04;7.22;;;1.75;;
29902;SDS011;30288;50.514;9.678;2023-04-01T04:22:11;11.88;;;1.95;;
29902;SDS011;30288;50.514;9.678;2023-04-01T04:24:17;11.38;;;1.83;;
29902;SDS011;30288;50.514;9.678;2023-04-01T04:26:35;7.63;;;1.70;;
29902;SDS011;30288;50.514;9.678;2023-04-01T04:28:41;8.68;;;1.70;;
29902;SDS011;30288;50.514;9.678;2023-04-01T04:30:48;8.82;;;1.75;;
29902;SDS011;30288;50.514;9.678;2023-04-01T04:32:56;12.05;;;1.98;;
29902;SDS011;30288;50.514;9.678;2023-04-01T04:35:02;12.80;;;3.15;;
29902;SDS011;30288;50.514;9.678;2023-04-01T04:37:08;8.88;;;2.00;;
29902;SDS011;30288;50.514;9.678;2023-04-01T04:39:14;11.80;;;2.15;;
29902;SDS011;30288;50.514;9.678;2023-04-01T04:41:20;14.82;;;2.33;;
29902;SDS011;30288;50.514;9.678;2023-04-01T04:43:27;14.73;;;2.13;;
29902;SDS011;30288;50.514;9.678;2023-04-01T04:45:33;10.38;;;1.83;;
29902;SDS011;30288;50.514;9.678;2023-04-01T04:47:39;16.63;;;2.47;;
29902;SDS011;30288;50.514;9.678;2023-04-01T04:49:48;9.35;;;2.45;;
29902;SDS011;30288;50.514;9.678;2023-04-01T04:51:53;10.82;;;2.35;;
29902;SDS011;30288;50.514;9.678;2023-04-01T04:54:01;6.35;;;1.77;;
29902;SDS011;30288;50.514;9.678;2023-04-01T04:56:20;10.98;;;2.17;;
29902;SDS011;30288;50.514;9.678;2023-04-01T04:58:38;15.15;;;2.28;;
29902;SDS011;30288;50.514;9.678;2023-04-01T05:00:51;14.70;;;2.30;;
29902;SDS011;30288;50.514;9.678;2023-04-01T05:03:01;10.32;;;1.90;;
29902;SDS011;30288;50.514;9.678;2023-04-01T05:05:10;8.35;;;1.85;;
29902;SDS011;30288;50.514;9.678;2023-04-01T05:07:15;15.98;;;2.25;;
29902;SDS011;30288;50.514;9.678;2023-04-01T05:09:21;8.63;;;1.65;;
29902;SDS011;30288;50.514;9.678;2023-04-01T05:11:26;11.90;;;2.05;;
29902;SDS011;30288;50.514;9.678;2023-04-01T05:13:31;6.40;;;1.48;;
29902;SDS011;30288;50.514;9.678;2023-04-01T05:15:37;10.23;;;1.85;;
29902;SDS011;30288;50.514;9.678;2023-04-01T05:17:42;10.05;;;1.90;;
29902;SDS011;30288;50.514;9.678;2023-04-01T05:19:48;15.63;;;2.20;;
29902;SDS011;30288;50.514;9.678;2023-04-01T05:21:56;12.98;;;4.32;;
29902;SDS011;30288;50.514;9.678;2023-04-01T05:24:03;10.00;;;2.33;;
29902;SDS011;30288;50.514;9.678;2023-04-01T05:26:12;10.40;;;2.28;;
29902;SDS011;30288;50.514;9.678;2023-04-01T05:28:19;10.25;;;2.35;;
29902;SDS011;30288;50.514;9.678;2023-04-01T05:30:24;8.98;;;2.25;;
29902;SDS011;30288;50.514;9.678;2023-04-01T05:32:37;10.95;;;2.35;;
29902;SDS011;30288;50.514;9.678;2023-04-01T05:34:42;9.35;;;2.58;;
29902;SDS011;30288;50.514;9.678;2023-04-01T05:36:48;14.57;;;3.15;;
29902;SDS011;30288;50.514;9.678;2023-04-01T05:38:57;10.85;;;2.25;;
29902;SDS011;30288;50.514;9.678;2023-04-01T05:41:02;9.48;;;2.03;;
29902;SDS011;30288;50.514;9.678;2023-04-01T05:43:12;16.13;;;2.90;;
29902;SDS011;30288;50.514;9.678;2023-04-01T05:45:20;7.50;;;1.83;;
29902;SDS011;30288;50.514;9.678;2023-04-01T05:47:55;11.70;;;2.03;;
29902;SDS011;30288;50.514;9.678;2023-04-01T05:50:04;8.57;;;1.63;;
29902;SDS011;30288;50.514;9.678;2023-04-01T05:52:10;11.95;;;2.20;;
29902;SDS011;30288;50.514;9.678;2023-04-01T05:54:18;7.97;;;1.70;;
29902;SDS011;30288;50.514;9.678;2023-04-01T05:56:24;6.72;;;1.60;;
29902;SDS011;30288;50.514;9.678;2023-04-01T05:58:29;11.30;;;2.30;;
29902;SDS011;30288;50.514;9.678;2023-04-01T06:00:35;10.10;;;2.00;;
29902;SDS011;30288;50.514;9.678;2023-04-01T06:02:40;8.20;;;1.90;;
29902;SDS011;30288;50.514;9.678;2023-04-01T06:04:46;10.02;;;1.80;;
29902;SDS011;30288;50.514;9.678;2023-04-01T06:06:51;9.30;;;1.88;;
29902;SDS011;30288;50.514;9.678;2023-04-01T06:08:57;8.93;;;1.95;;
29902;SDS011;30288;50.514;9.678;2023-04-01T06:11:21;11.07;;;1.90;;
29902;SDS011;30288;50.514;9.678;2023-04-01T06:13:40;7.50;;;1.40;;
29902;SDS011;30288;50.514;9.678;2023-04-01T06:16:10;9.80;;;1.63;;
29902;SDS011;30288;50.514;9.678;2023-04-01T06:18:37;11.10;;;1.80;;
29902;SDS011;30288;50.514;9.678;2023-04-01T06:20:56;9.20;;;1.92;;
29902;SDS011;30288;50.514;9.678;2023-04-01T06:23:13;7.05;;;1.50;;
29902;SDS011;30288;50.514;9.678;2023-04-01T06:25:41;6.10;;;1.40;;
29902;SDS011;30288;50.514;9.678;2023-04-01T06:30:32;8.75;;;1.58;;
29902;SDS011;30288;50.514;9.678;2023-04-01T06:32:53;9.02;;;1.60;;
29902;SDS011;30288;50.514;9.678;2023-04-01T06:35:21;6.95;;;1.58;;
29902;SDS011;30288;50.514;9.678;2023-04-01T06:37:43;10.45;;;1.98;;
29902;SDS011;30288;50.514;9.678;2023-04-01T06:43:13;10.05;;;2.00;;
29902;SDS011;30288;50.514;9.678;2023-04-01T06:45:55;8.73;;;2.00;;
29902;SDS011;30288;50.514;9.678;2023-04-01T06:48:39;9.85;;;1.88;;
29902;SDS011;30288;50.514;9.678;2023-04-01T06:51:37;8.38;;;1.58;;
29902;SDS011;30288;50.514;9.678;2023-04-01T06:54:09;11.23;;;1.98;;
29902;SDS011;30288;50.514;9.678;2023-04-01T06:56:38;8.98;;;1.70;;
29902;SDS011;30288;50.514;9.678;2023-04-01T06:58:58;11.95;;;1.77;;
29902;SDS011;30288;50.514;9.678;2023-04-01T07:01:08;9.35;;;1.58;;
29902;SDS011;30288;50.514;9.678;2023-04-01T07:03:21;9.65;;;2.10;;
29902;SDS011;30288;50.514;9.678;2023-04-01T07:05:36;5.78;;;1.10;;
29902;SDS011;30288;50.514;9.678;2023-04-01T07:07:42;8.35;;;1.88;;
29902;SDS011;30288;50.514;9.678;2023-04-01T07:09:55;10.32;;;2.20;;
29902;SDS011;30288;50.514;9.678;2023-04-01T07:12:28;6.93;;;1.42;;
29902;SDS011;30288;50.514;9.678;2023-04-01T07:15:27;8.52;;;1.27;;
29902;SDS011;30288;50.514;9.678;2023-04-01T07:17:41;7.00;;;1.33;;
29902;SDS011;30288;50.514;9.678;2023-04-01T07:19:50;6.47;;;1.42;;
29902;SDS011;30288;50.514;9.678;2023-04-01T07:22:04;5.85;;;1.60;;
29902;SDS011;30288;50.514;9.678;2023-04-01T07:24:40;5.78;;;1.20;;
29902;SDS011;30288;50.514;9.678;2023-04-01T07:26:48;7.93;;;1.50;;
29902;SDS011;30288;50.514;9.678;2023-04-01T07:29:05;5.55;;;1.10;;
29902;SDS011;30288;50.514;9.678;2023-04-01T07:31:28;7.07;;;1.58;;
29902;SDS011;30288;50.514;9.678;2023-04-01T07:33:55;15.93;;;1.45;;
29902;SDS011;30288;50.514;9.678;2023-04-01T07:36:10;8.50;;;1.45;;
29902;SDS011;30288;50.514;9.678;2023-04-01T07:38:26;8.45;;;1.25;;
29902;SDS011;30288;50.514;9.678;2023-04-01T07:40:39;8.55;;;1.48;;
29902;SDS011;30288;50.514;9.678;2023-04-01T07:45:34;10.02;;;1.35;;
29902;SDS011;30288;50.514;9.678;2023-04-01T07:47:54;5.03;;;1.50;;
29902;SDS011;30288;50.514;9.678;2023-04-01T07:50:15;6.07;;;1.20;;
29902;SDS011;30288;50.514;9.678;2023-04-01T07:52:27;5.18;;;1.35;;
29902;SDS011;30288;50.514;9.678;2023-04-01T07:54:48;5.35;;;1.10;;
29902;SDS011;30288;50.514;9.678;2023-04-01T07:57:01;6.82;;;1.35;;
29902;SDS011;30288;50.514;9.678;2023-04-01T07:59:26;4.88;;;1.00;;
29902;SDS011;30288;50.514;9.678;2023-04-01T08:01:57;5.90;;;1.48;;
29902;SDS011;30288;50.514;9.678;2023-04-01T08:04:19;5.07;;;1.10;;
29902;SDS011;30288;50.514;9.678;2023-04-01T08:06:45;7.57;;;1.30;;
29902;SDS011;30288;50.514;9.678;2023-04-01T08:11:32;12.95;;;1.88;;
29902;SDS011;30288;50.514;9.678;2023-04-01T08:14:15;5.05;;;1.20;;
29902;SDS011;30288;50.514;9.678;2023-04-01T08:16:52;5.10;;;1.30;;
29902;SDS011;30288;50.514;9.678;2023-04-01T08:19:19;6.80;;;1.20;;
29902;SDS011;30288;50.514;9.678;2023-04-01T08:21:35;11.18;;;1.45;;
29902;SDS011;30288;50.514;9.678;2023-04-01T08:23:49;8.98;;;1.48;;
29902;SDS011;30288;50.514;9.678;2023-04-01T08:26:00;4.95;;;1.02;;
29902;SDS011;30288;50.514;9.678;2023-04-01T08:28:17;3.17;;;1.00;;
29902;SDS011;30288;50.514;9.678;2023-04-01T08:30:31;22.57;;;2.80;;
29902;SDS011;30288;50.514;9.678;2023-04-01T08:32:47;8.73;;;1.38;;
29902;SDS011;30288;50.514;9.678;2023-04-01T08:35:06;4.00;;;1.05;;
29902;SDS011;30288;50.514;9.678;2023-04-01T08:37:20;8.32;;;1.20;;
29902;SDS011;30288;50.514;9.678;2023-04-01T08:39:34;6.38;;;1.33;;
29902;SDS011;30288;50.514;9.678;2023-04-01T08:41:49;3.70;;;1.00;;
29902;SDS011;30288;50.514;9.678;2023-04-01T08:47:19;3.25;;;0.73;;
29902;SDS011;30288;50.514;9.678;2023-04-01T08:49:47;1.30;;;0.57;;
29902;SDS011;30288;50.514;9.678;2023-04-01T08:52:26;3.95;;;0.93;;
29902;SDS011;30288;50.514;9.678;2023-04-01T08:57:45;3.60;;;1.13;;
29902;SDS011;30288;50.514;9.678;2023-04-01T09:00:19;5.13;;;1.02;;
29902;SDS011;30288;50.514;9.678;2023-04-01T09:05:35;8.70;;;1.73;;
29902;SDS011;30288;50.514;9.678;2023-04-01T09:07:54;2.70;;;0.88;;
29902;SDS011;30288;50.514;9.678;2023-04-01T09:10:22;2.97;;;0.93;;
29902;SDS011;30288;50.514;9.678;2023-04-01T09:13:34;5.85;;;0.90;;
29902;SDS011;30288;50.514;9.678;2023-04-01T09:16:29;3.75;;;0.90;;
29902;SDS011;30288;50.514;9.678;2023-04-01T09:18:59;3.97;;;1.00;;
29902;SDS011;30288;50.514;9.678;2023-04-01T09:24:23;3.30;;;1.13;;
29902;SDS011;30288;50.514;9.678;2023-04-01T09:29:02;4.57;;;0.98;;
29902;SDS011;30288;50.514;9.678;2023-04-01T09:34:30;10.75;;;1.20;;
29902;SDS011;30288;50.514;9.678;2023-04-01T09:37:03;10.35;;;1.30;;
29902;SDS011;30288;50.514;9.678;2023-04-01T09:39:35;10.45;;;2.10;;
29902;SDS011;30288;50.514;9.678;2023-04-01T09:41:46;4.10;;;1.20;;
29902;SDS011;30288;50.514;9.678;2023-04-01T09:44:13;3.22;;;1.00;;
29902;SDS011;30288;50.514;9.678;2023-04-01T09:46:42;9.75;;;1.23;;
29902;SDS011;30288;50.514;9.678;2023-04-01T09:49:19;4.80;;;0.82;;
29902;SDS011;30288;50.514;9.678;2023-04-01T09:51:45;5.25;;;0.68;;
29902;SDS011;30288;50.514;9.678;2023-04-01T09:54:22;9.95;;;1.02;;
29902;SDS011;30288;50.514;9.678;2023-04-01T09:56:46;5.53;;;1.10;;
29902;SDS011;30288;50.514;9.678;2023-04-01T09:59:24;2.38;;;0.75;;
29902;SDS011;30288;50.514;9.678;2023-04-01T10:02:33;4.55;;;0.80;;
29902;SDS011;30288;50.514;9.678;2023-04-01T10:11:23;3.15;;;0.70;;
29902;SDS011;30288;50.514;9.678;2023-04-01T10:14:07;10.23;;;1.20;;
29902;SDS011;30288;50.514;9.678;2023-04-01T10:16:50;4.00;;;0.90;;
29902;SDS011;30288;50.514;9.678;2023-04-01T10:22:17;5.15;;;0.95;;
29902;SDS011;30288;50.514;9.678;2023-04-01T10:24:59;4.78;;;0.63;;
29902;SDS011;30288;50.514;9.678;2023-04-01T10:27:55;3.50;;;0.75;;
29902;SDS011;30288;50.514;9.678;2023-04-01T10:31:04;9.15;;;1.10;;
29902;SDS011;30288;50.514;9.678;2023-04-01T10:36:54;3.95;;;0.85;;
29902;SDS011;30288;50.514;9.678;2023-04-01T10:42:20;2.20;;;0.70;;
29902;SDS011;30288;50.514;9.678;2023-04-01T10:48:18;4.53;;;0.82;;
29902;SDS011;30288;50.514;9.678;2023-04-01T10:50:47;3.08;;;0.65;;
29902;SDS011;30288;50.514;9.678;2023-04-01T10:53:31;1.92;;;0.60;;
29902;SDS011;30288;50.514;9.678;2023-04-01T10:59:01;2.17;;;0.70;;
29902;SDS011;30288;50.514;9.678;2023-04-01T11:02:15;12.57;;;0.95;;
29902;SDS011;30288;50.514;9.678;2023-04-01T11:11:35;6.90;;;1.10;;
29902;SDS011;30288;50.514;9.678;2023-04-01T11:14:16;9.68;;;0.90;;
29902;SDS011;30288;50.514;9.678;2023-04-01T11:17:00;7.15;;;2.15;;
29902;SDS011;30288;50.514;9.678;2023-04-01T11:24:59;3.60;;;0.90;;
29902;SDS011;30288;50.514;9.678;2023-04-01T11:28:06;0.88;;;0.45;;
29902;SDS011;30288;50.514;9.678;2023-04-01T11:30:39;4.35;;;1.00;;
29902;SDS011;30288;50.514;9.678;2023-04-01T11:33:03;3.00;;;0.77;;
29902;SDS011;30288;50.514;9.678;2023-04-01T11:35:39;5.53;;;0.85;;
29902;SDS011;30288;50.514;9.678;2023-04-01T11:38:13;5.20;;;0.90;;
29902;SDS011;30288;50.514;9.678;2023-04-01T11:40:52;1.83;;;0.73;;
29902;SDS011;30288;50.514;9.678;2023-04-01T11:43:40;2.58;;;0.80;;
29902;SDS011;30288;50.514;9.678;2023-04-01T11:46:24;2.85;;;0.75;;
29902;SDS011;30288;50.514;9.678;2023-04-01T11:48:44;5.20;;;1.30;;
29902;SDS011;30288;50.514;9.678;2023-04-01T11:54:11;4.25;;;1.27;;
29902;SDS011;30288;50.514;9.678;2023-04-01T11:56:46;5.60;;;1.00;;
29902;SDS011;30288;50.514;9.678;2023-04-01T12:02:05;1.88;;;0.80;;
29902;SDS011;30288;50.514;9.678;2023-04-01T12:04:34;1.40;;;0.63;;
29902;SDS011;30288;50.514;9.678;2023-04-01T12:07:06;1.42;;;0.70;;
29902;SDS011;30288;50.514;9.678;2023-04-01T12:09:28;2.78;;;0.80;;
29902;SDS011;30288;50.514;9.678;2023-04-01T12:11:44;1.58;;;0.68;;
29902;SDS011;30288;50.514;9.678;2023-04-01T12:13:58;7.82;;;1.17;;
29902;SDS011;30288;50.514;9.678;2023-04-01T12:16:22;2.25;;;0.73;;
29902;SDS011;30288;50.514;9.678;2023-04-01T12:18:51;4.40;;;0.90;;
29902;SDS011;30288;50.514;9.678;2023-04-01T12:21:07;15.47;;;1.33;;
29902;SDS011;30288;50.514;9.678;2023-04-01T12:26:00;3.78;;;0.80;;
29902;SDS011;30288;50.514;9.678;2023-04-01T12:28:41;7.20;;;1.17;;
29902;SDS011;30288;50.514;9.678;2023-04-01T12:31:06;8.50;;;1.50;;
29902;SDS011;30288;50.514;9.678;2023-04-01T12:33:41;3.92;;;0.73;;
29902;SDS011;30288;50.514;9.678;2023-04-01T12:36:35;4.40;;;0.95;;
29902;SDS011;30288;50.514;9.678;2023-04-01T12:39:07;3.83;;;0.80;;
29902;SDS011;30288;50.514;9.678;2023-04-01T12:41:30;4.38;;;1.10;;
29902;SDS011;30288;50.514;9.678;2023-04-01T12:46:32;4.90;;;1.08;;
29902;SDS011;30288;50.514;9.678;2023-04-01T12:56:59;8.80;;;1.17;;
29902;SDS011;30288;50.514;9.678;2023-04-01T12:59:26;3.20;;;0.60;;
29902;SDS011;30288;50.514;9.678;2023-04-01T13:02:11;3.58;;;0.60;;
29902;SDS011;30288;50.514;9.678;2023-04-01T13:04:30;1.42;;;0.50;;
29902;SDS011;30288;50.514;9.678;2023-04-01T13:07:10;3.08;;;0.50;;
29902;SDS011;30288;50.514;9.678;2023-04-01T13:09:45;1.35;;;0.60;;
29902;SDS011;30288;50.514;9.678;2023-04-01T13:12:06;4.38;;;0.80;;
29902;SDS011;30288;50.514;9.678;2023-04-01T13:14:54;9.48;;;0.90;;
29902;SDS011;30288;50.514;9.678;2023-04-01T13:17:17;9.00;;;1.38;;
29902;SDS011;30288;50.514;9.678;2023-04-01T13:19:34;3.53;;;0.52;;
29902;SDS011;30288;50.514;9.678;2023-04-01T13:22:09;10.77;;;1.00;;
29902;SDS011;30288;50.514;9.678;2023-04-01T13:24:31;4.18;;;1.02;;
29902;SDS011;30288;50.514;9.678;2023-04-01T13:26:50;6.93;;;1.15;;
29902;SDS011;30288;50.514;9.678;2023-04-01T13:29:05;3.95;;;0.63;;
29902;SDS011;30288;50.514;9.678;2023-04-01T13:31:23;2.53;;;0.75;;
29902;SDS011;30288;50.514;9.678;2023-04-01T13:33:41;2.58;;;0.60;;
29902;SDS011;30288;50.514;9.678;2023-04-01T13:35:57;1.27;;;0.73;;
29902;SDS011;30288;50.514;9.678;2023-04-01T13:41:05;4.82;;;0.77;;
29902;SDS011;30288;50.514;9.678;2023-04-01T13:43:25;2.10;;;0.70;;
29902;SDS011;30288;50.514;9.678;2023-04-01T13:45:38;3.70;;;0.60;;
29902;SDS011;30288;50.514;9.678;2023-04-01T13:50:42;3.45;;;0.80;;
29902;SDS011;30288;50.514;9.678;2023-04-01T13:53:14;2.28;;;0.50;;
29902;SDS011;30288;50.514;9.678;2023-04-01T13:55:58;1.55;;;0.57;;
29902;SDS011;30288;50.514;9.678;2023-04-01T14:01:15;3.67;;;0.63;;
29902;SDS011;30288;50.514;9.678;2023-04-01T14:03:30;1.00;;;0.50;;
29902;SDS011;30288;50.514;9.678;2023-04-01T14:06:02;3.08;;;0.60;;
29902;SDS011;30288;50.514;9.678;2023-04-01T14:08:20;4.55;;;0.70;;
29902;SDS011;30288;50.514;9.678;2023-04-01T14:10:40;2.25;;;0.43;;
29902;SDS011;30288;50.514;9.678;2023-04-01T14:12:55;9.43;;;1.65;;
29902;SDS011;30288;50.514;9.678;2023-04-01T14:15:14;2.90;;;0.60;;
29902;SDS011;30288;50.514;9.678;2023-04-01T14:17:44;8.48;;;1.20;;
29902;SDS011;30288;50.514;9.678;2023-04-01T14:22:31;5.63;;;0.90;;
29902;SDS011;30288;50.514;9.678;2023-04-01T14:24:49;1.90;;;0.60;;
29902;SDS011;30288;50.514;9.678;2023-04-01T14:29:57;6.68;;;0.93;;
29902;SDS011;30288;50.514;9.678;2023-04-01T14:32:23;1.55;;;0.70;;
29902;SDS011;30288;50.514;9.678;2023-04-01T14:34:48;5.93;;;1.02;;
29902;SDS011;30288;50.514;9.678;2023-04-01T14:45:53;2.30;;;0.68;;
29902;SDS011;30288;50.514;9.678;2023-04-01T14:48:23;4.95;;;0.88;;
29902;SDS011;30288;50.514;9.678;2023-04-01T14:50:40;11.43;;;1.20;;
29902;SDS011;30288;50.514;9.678;2023-04-01T14:52:55;4.70;;;0.80;;
29902;SDS011;30288;50.514;9.678;2023-04-01T14:55:19;5.22;;;0.90;;
29902;SDS011;30288;50.514;9.678;2023-04-01T14:57:33;4.93;;;1.95;;
29902;SDS011;30288;50.514;9.678;2023-04-01T14:59:39;9.80;;;1.17;;
29902;SDS011;30288;50.514;9.678;2023-04-01T15:01:54;7.20;;;0.85;;
29902;SDS011;30288;50.514;9.678;2023-04-01T15:04:09;12.90;;;1.90;;
29902;SDS011;30288;50.514;9.678;2023-04-01T15:06:45;5.70;;;1.00;;
29902;SDS011;30288;50.514;9.678;2023-04-01T15:09:07;5.78;;;1.10;;
29902;SDS011;30288;50.514;9.678;2023-04-01T15:11:23;3.13;;;0.90;;
29902;SDS011;30288;50.514;9.678;2023-04-01T15:13:44;2.67;;;1.00;;
29902;SDS011;30288;50.514;9.678;2023-04-01T15:16:06;1.38;;;0.63;;
29902;SDS011;30288;50.514;9.678;2023-04-01T15:18:25;3.10;;;0.93;;
29902;SDS011;30288;50.514;9.678;2023-04-01T15:20:53;4.45;;;1.10;;
29902;SDS011;30288;50.514;9.678;2023-04-01T15:23:17;9.52;;;1.30;;
29902;SDS011;30288;50.514;9.678;2023-04-01T15:25:35;13.73;;;1.67;;
29902;SDS011;30288;50.514;9.678;2023-04-01T15:27:55;1.90;;;0.65;;
29902;SDS011;30288;50.514;9.678;2023-04-01T15:30:21;5.22;;;1.73;;
29902;SDS011;30288;50.514;9.678;2023-04-01T15:32:40;1.52;;;0.75;;
29902;SDS011;30288;50.514;9.678;2023-04-01T15:35:03;1.58;;;0.50;;
29902;SDS011;30288;50.514;9.678;2023-04-01T15:37:27;4.65;;;0.68;;
29902;SDS011;30288;50.514;9.678;2023-04-01T15:39:46;2.17;;;0.43;;
29902;SDS011;30288;50.514;9.678;2023-04-01T15:42:10;13.52;;;1.25;;
29902;SDS011;30288;50.514;9.678;2023-04-01T15:44:37;9.95;;;1.00;;